createdAt,value
2019-05-23T00:02:03.145Z,15.53
2019-05-23T00:04:55.486Z,15.70
2019-05-23T00:07:42.307Z,15.17
2019-05-23T00:10:33.563Z,14.70
2019-05-23T00:13:10.842Z,14.97
2019-05-23T00:15:41.646Z,17.10
2019-05-23T00:18:08.927Z,13.50
2019-05-23T00:20:36.277Z,16.73
2019-05-23T00:23:06.357Z,18.43
2019-05-23T00:25:35.006Z,14.83
2019-05-23T00:28:03.219Z,18.73
2019-05-23T00:30:43.531Z,14.90
2019-05-23T00:33:13.215Z,13.83
2019-05-23T00:35:40.771Z,16.10
2019-05-23T00:38:08.945Z,14.70
2019-05-23T00:40:36.675Z,14.50
2019-05-23T00:43:05.290Z,15.97
2019-05-23T00:45:32.543Z,17.47
2019-05-23T00:48:00.753Z,16.87
2019-05-23T00:50:29.854Z,14.27
2019-05-23T00:52:57.571Z,19.17
2019-05-23T00:55:25.655Z,18.77
2019-05-23T00:57:54.415Z,18.17
2019-05-23T01:00:23.934Z,19.03
2019-05-23T01:02:53.201Z,14.23
2019-05-23T01:05:20.843Z,15.87
2019-05-23T01:07:49.877Z,16.20
2019-05-23T01:10:18.104Z,13.83
2019-05-23T01:12:45.886Z,16.97
2019-05-23T01:15:13.479Z,14.17
2019-05-23T01:17:40.493Z,19.13
2019-05-23T01:20:11.638Z,18.07
2019-05-23T01:22:40.339Z,16.00
2019-05-23T01:25:09.265Z,17.77
2019-05-23T01:27:37.297Z,16.03
2019-05-23T01:30:07.526Z,15.27
2019-05-23T01:32:39.540Z,15.93
2019-05-23T01:35:09.322Z,15.93
2019-05-23T01:37:36.685Z,16.13
2019-05-23T01:40:05.085Z,16.73
2019-05-23T01:42:33.127Z,18.70
2019-05-23T01:45:02.119Z,17.57
2019-05-23T01:47:29.858Z,16.47
2019-05-23T01:49:57.844Z,19.83
2019-05-23T01:52:26.165Z,16.10
2019-05-23T01:54:54.718Z,22.57
2019-05-23T01:57:23.254Z,18.80
2019-05-23T02:00:06.110Z,19.63
2019-05-23T02:02:20.557Z,15.47
2019-05-23T02:04:47.924Z,17.80
2019-05-23T02:07:15.991Z,20.03
2019-05-23T02:09:43.145Z,22.97
2019-05-23T02:12:11.285Z,21.70
2019-05-23T02:14:40.094Z,19.17
2019-05-23T02:17:08.347Z,14.90
2019-05-23T02:19:35.392Z,16.47
2019-05-23T02:22:03.094Z,17.87
2019-05-23T02:24:30.979Z,16.23
2019-05-23T02:26:59.252Z,18.67
2019-05-23T02:29:27.268Z,16.70
2019-05-23T02:31:55.175Z,16.80
2019-05-23T02:34:22.274Z,16.77
2019-05-23T02:36:51.299Z,19.23
2019-05-23T02:39:38.673Z,17.63
2019-05-23T02:42:41.115Z,15.23
2019-05-23T02:45:17.891Z,15.57
2019-05-23T02:47:48.728Z,17.73
2019-05-23T02:50:26.974Z,13.47
2019-05-23T02:52:55.934Z,18.90
2019-05-23T02:55:34.644Z,14.13
2019-05-23T02:58:35.078Z,14.37
2019-05-23T03:01:29.348Z,15.60
2019-05-23T03:04:02.550Z,16.03
2019-05-23T03:06:30.043Z,14.43
2019-05-23T03:08:59.107Z,14.70
2019-05-23T03:11:38.205Z,16.53
2019-05-23T03:14:06.010Z,14.93
2019-05-23T03:16:34.797Z,17.63
2019-05-23T03:19:08.380Z,17.20
2019-05-23T03:21:36.990Z,13.40
2019-05-23T03:24:05.800Z,16.13
2019-05-23T03:27:00.943Z,15.80
2019-05-23T03:29:32.154Z,17.30
2019-05-23T03:32:10.942Z,21.67
2019-05-23T03:34:40.063Z,19.27
2019-05-23T03:37:08.928Z,17.30
2019-05-23T03:39:36.422Z,19.83
2019-05-23T03:42:04.568Z,18.93
2019-05-23T03:44:32.243Z,18.27
2019-05-23T03:46:59.637Z,20.23
2019-05-23T03:49:27.979Z,19.63
2019-05-23T03:51:56.414Z,16.53
2019-05-23T03:54:25.916Z,19.60
2019-05-23T03:56:53.109Z,16.43
2019-05-23T03:59:21.977Z,15.53
2019-05-23T04:01:51.095Z,16.30
2019-05-23T04:04:18.522Z,16.60
2019-05-23T04:06:47.253Z,21.47
2019-05-23T04:09:15.594Z,16.43
2019-05-23T04:11:43.456Z,16.33
2019-05-23T04:14:11.038Z,17.53
2019-05-23T04:16:38.798Z,15.33
2019-05-23T04:19:06.351Z,14.10
2019-05-23T04:21:33.681Z,14.77
2019-05-23T04:24:00.867Z,14.93
2019-05-23T04:26:28.511Z,16.10
2019-05-23T04:28:55.871Z,15.77
2019-05-23T04:31:22.939Z,17.23
2019-05-23T04:33:50.421Z,17.80
2019-05-23T04:36:18.002Z,17.87
2019-05-23T04:38:45.490Z,19.37
2019-05-23T04:41:13.003Z,18.37
2019-05-23T04:43:40.052Z,17.20
2019-05-23T04:46:07.643Z,16.10
2019-05-23T04:48:35.473Z,20.67
2019-05-23T04:51:03.553Z,16.67
2019-05-23T04:53:31.918Z,17.17
2019-05-23T04:56:00.154Z,15.93
2019-05-23T04:58:27.951Z,17.27
2019-05-23T05:00:56.223Z,19.23
2019-05-23T05:03:23.814Z,14.80
2019-05-23T05:05:53.003Z,17.50
2019-05-23T05:08:20.097Z,14.60
2019-05-23T05:10:47.757Z,14.63
2019-05-23T05:13:15.198Z,15.07
2019-05-23T05:15:42.737Z,17.10
2019-05-23T05:18:10.495Z,15.83
2019-05-23T05:20:37.796Z,25.33
2019-05-23T05:23:05.120Z,16.60
2019-05-23T05:25:32.411Z,15.73
2019-05-23T05:28:00.079Z,17.03
2019-05-23T05:30:27.361Z,19.07
2019-05-23T05:32:55.994Z,14.77
2019-05-23T05:35:24.051Z,16.27
2019-05-23T05:37:51.460Z,17.43
2019-05-23T05:40:19.842Z,20.20
2019-05-23T05:42:46.923Z,23.60
2019-05-23T05:45:15.301Z,14.80
2019-05-23T05:47:42.562Z,18.27
2019-05-23T05:50:11.106Z,18.57
2019-05-23T05:52:39.583Z,20.93
2019-05-23T05:55:07.515Z,18.70
2019-05-23T05:57:35.327Z,19.33
2019-05-23T06:00:04.201Z,18.20
2019-05-23T06:02:31.356Z,24.97
2019-05-23T06:04:58.646Z,18.00
2019-05-23T06:07:30.068Z,19.20
2019-05-23T06:09:58.461Z,18.17
2019-05-23T06:12:26.270Z,25.33
2019-05-23T06:14:53.505Z,25.60
2019-05-23T06:17:20.963Z,29.40
2019-05-23T06:19:48.633Z,32.30
2019-05-23T06:22:17.524Z,30.00
2019-05-23T06:24:51.065Z,33.57
2019-05-23T06:27:14.838Z,21.43
2019-05-23T06:29:42.479Z,21.97
2019-05-23T06:32:12.676Z,23.77
2019-05-23T06:34:40.197Z,19.50
2019-05-23T06:37:07.807Z,19.10
2019-05-23T06:39:35.672Z,21.97
2019-05-23T06:42:04.330Z,24.37
2019-05-23T06:44:31.824Z,24.87
2019-05-23T06:46:59.067Z,24.77
2019-05-23T06:49:27.130Z,25.30
2019-05-23T06:51:54.166Z,24.93
2019-05-23T06:54:21.725Z,24.40
2019-05-23T06:56:49.050Z,24.47
2019-05-23T06:59:16.811Z,26.70
2019-05-23T07:01:44.168Z,28.63
2019-05-23T07:04:11.902Z,26.60
2019-05-23T07:06:39.140Z,30.73
2019-05-23T07:09:11.268Z,25.33
2019-05-23T07:11:38.652Z,28.47
2019-05-23T07:14:06.281Z,29.10
2019-05-23T07:16:33.635Z,27.17
2019-05-23T07:19:00.789Z,26.77
2019-05-23T07:21:28.848Z,31.00
2019-05-23T07:23:56.842Z,26.70
2019-05-23T07:26:23.993Z,26.83
2019-05-23T07:28:51.599Z,27.93
2019-05-23T07:31:19.156Z,26.13
2019-05-23T07:34:01.153Z,28.10
2019-05-23T07:36:15.962Z,27.77
2019-05-23T07:38:43.395Z,26.83
2019-05-23T07:41:10.712Z,29.87
2019-05-23T07:43:38.272Z,27.20
2019-05-23T07:46:06.397Z,28.53
2019-05-23T07:48:33.511Z,25.97
2019-05-23T07:51:01.658Z,25.40
2019-05-23T07:53:50.426Z,30.53
2019-05-23T07:56:19.515Z,23.73
2019-05-23T07:58:47.309Z,28.17
2019-05-23T08:01:17.354Z,23.67
2019-05-23T08:03:47.792Z,22.47
2019-05-23T08:06:14.797Z,24.93
2019-05-23T08:08:42.060Z,23.50
2019-05-23T08:11:09.200Z,22.27
2019-05-23T08:13:36.806Z,18.77
2019-05-23T08:16:04.176Z,18.43
2019-05-23T08:18:31.517Z,21.30
2019-05-23T08:20:58.487Z,21.07
2019-05-23T08:23:25.592Z,25.13
2019-05-23T08:25:52.621Z,17.43
2019-05-23T08:28:20.066Z,19.27
2019-05-23T08:30:47.167Z,16.73
2019-05-23T08:33:14.466Z,19.27
2019-05-23T08:35:41.798Z,18.17
2019-05-23T08:38:10.095Z,23.20
2019-05-23T08:40:38.100Z,18.03
2019-05-23T08:43:05.331Z,18.80
2019-05-23T08:45:32.888Z,20.33
2019-05-23T08:48:00.179Z,18.63
2019-05-23T08:50:28.236Z,17.93
2019-05-23T08:52:55.407Z,17.07
2019-05-23T08:55:24.651Z,16.70
2019-05-23T08:57:53.083Z,16.57
2019-05-23T09:00:21.461Z,16.13
2019-05-23T09:02:50.904Z,17.57
2019-05-23T09:05:20.637Z,13.93
2019-05-23T09:07:48.143Z,13.63
2019-05-23T09:10:16.458Z,13.50
2019-05-23T09:12:43.579Z,12.00
2019-05-23T09:15:10.896Z,14.70
2019-05-23T09:17:52.483Z,11.17
2019-05-23T09:20:09.308Z,11.63
2019-05-23T09:22:36.489Z,12.50
2019-05-23T09:25:03.969Z,13.00
2019-05-23T09:27:34.578Z,14.73
2019-05-23T09:30:01.321Z,8.47
2019-05-23T09:32:28.460Z,9.87
2019-05-23T09:34:55.533Z,10.23
2019-05-23T09:37:22.688Z,8.60
2019-05-23T09:39:50.046Z,11.00
2019-05-23T09:42:17.575Z,9.10
2019-05-23T09:44:44.943Z,8.10
2019-05-23T09:47:11.915Z,9.63
2019-05-23T09:49:38.910Z,7.93
2019-05-23T09:52:06.993Z,8.77
2019-05-23T09:54:34.889Z,10.00
2019-05-23T09:57:02.104Z,5.97
2019-05-23T09:59:29.361Z,11.27
2019-05-23T10:01:57.518Z,7.37
2019-05-23T10:04:24.471Z,6.87
2019-05-23T10:06:51.702Z,6.47
2019-05-23T10:09:18.683Z,7.37
2019-05-23T10:11:46.568Z,7.37
2019-05-23T10:14:19.861Z,8.77
2019-05-23T10:16:54.878Z,8.07
2019-05-23T10:19:21.942Z,7.37
2019-05-23T10:21:48.895Z,4.87
2019-05-23T10:24:15.945Z,5.17
2019-05-23T10:26:42.944Z,8.30
2019-05-23T10:29:10.182Z,5.53
2019-05-23T10:31:37.080Z,7.70
2019-05-23T10:34:04.101Z,6.07
2019-05-23T10:36:31.231Z,4.33
2019-05-23T10:38:58.769Z,5.87
2019-05-23T10:41:25.781Z,6.73
2019-05-23T10:43:53.319Z,6.33
2019-05-23T10:46:20.930Z,5.43
2019-05-23T10:48:48.153Z,5.73
2019-05-23T10:51:15.253Z,8.17
2019-05-23T10:53:42.118Z,5.57
2019-05-23T10:56:09.185Z,6.43
2019-05-23T10:58:36.241Z,5.90
2019-05-23T11:01:04.611Z,5.83
2019-05-23T11:03:31.483Z,6.40
2019-05-23T11:05:58.582Z,5.80
2019-05-23T11:08:29.091Z,4.87
2019-05-23T11:10:54.554Z,7.13
2019-05-23T11:13:21.713Z,5.60
2019-05-23T11:15:48.785Z,7.27
2019-05-23T11:18:16.161Z,5.43
2019-05-23T11:20:43.275Z,5.03
2019-05-23T11:23:12.363Z,4.60
2019-05-23T11:25:39.467Z,4.83
2019-05-23T11:28:07.884Z,5.53
2019-05-23T11:30:42.692Z,6.40
2019-05-23T11:33:11.777Z,5.67
2019-05-23T11:35:39.598Z,5.70
2019-05-23T11:38:07.929Z,4.43
2019-05-23T11:40:35.084Z,6.40
2019-05-23T11:43:02.339Z,7.93
2019-05-23T11:45:32.582Z,8.33
2019-05-23T11:47:59.528Z,4.90
2019-05-23T11:50:26.538Z,4.80
2019-05-23T11:52:56.062Z,5.23
2019-05-23T11:55:23.517Z,5.17
2019-05-23T11:57:51.325Z,4.70
2019-05-23T12:00:26.277Z,4.80
2019-05-23T12:02:53.471Z,4.40
2019-05-23T12:05:24.818Z,8.20
2019-05-23T12:07:51.812Z,3.77
2019-05-23T12:10:19.013Z,3.43
2019-05-23T12:12:46.220Z,3.73
2019-05-23T12:15:18.137Z,2.90
2019-05-23T12:17:45.236Z,3.63
2019-05-23T12:20:13.258Z,4.00
2019-05-23T12:22:41.025Z,3.97
2019-05-23T12:25:22.084Z,4.33
2019-05-23T12:27:38.913Z,3.97
2019-05-23T12:30:09.864Z,3.40
2019-05-23T12:32:36.754Z,3.00
2019-05-23T12:35:11.075Z,4.30
2019-05-23T12:37:33.338Z,2.90
2019-05-23T12:40:00.263Z,2.27
2019-05-23T12:42:27.369Z,2.03
2019-05-23T12:44:54.480Z,2.00
2019-05-23T12:47:39.533Z,2.67
2019-05-23T12:50:10.930Z,2.20
2019-05-23T12:52:38.041Z,2.97
2019-05-23T12:55:05.255Z,2.70
2019-05-23T12:57:32.328Z,1.90
2019-05-23T13:00:00.111Z,1.90
2019-05-23T13:02:28.158Z,2.30
2019-05-23T13:04:56.373Z,2.23
2019-05-23T13:07:35.800Z,2.50
2019-05-23T13:09:52.887Z,2.80
2019-05-23T13:12:20.002Z,1.93
2019-05-23T13:14:47.041Z,2.57
2019-05-23T13:17:14.029Z,1.97
2019-05-23T13:19:41.594Z,1.90
2019-05-23T13:22:10.234Z,2.60
2019-05-23T13:24:52.189Z,5.07
2019-05-23T13:27:06.393Z,2.17
2019-05-23T13:29:34.018Z,2.80
2019-05-23T13:32:01.594Z,1.90
2019-05-23T13:34:28.541Z,2.00
2019-05-23T13:36:55.784Z,4.13
2019-05-23T13:39:23.155Z,2.30
2019-05-23T13:41:50.569Z,4.03
2019-05-23T13:44:32.781Z,2.13
2019-05-23T13:46:46.526Z,1.87
2019-05-23T13:49:14.348Z,2.20
2019-05-23T13:51:41.940Z,3.43
2019-05-23T13:54:08.945Z,1.70
2019-05-23T13:56:36.019Z,1.60
2019-05-23T13:59:03.297Z,2.17
2019-05-23T14:01:31.333Z,1.47
2019-05-23T14:03:59.054Z,1.90
2019-05-23T14:06:26.145Z,1.80
2019-05-23T14:08:53.389Z,2.03
2019-05-23T14:11:20.264Z,2.10
2019-05-23T14:13:47.793Z,1.53
2019-05-23T14:16:15.399Z,3.30
2019-05-23T14:18:43.104Z,3.33
2019-05-23T14:21:10.059Z,3.00
2019-05-23T14:23:37.114Z,2.30
2019-05-23T14:26:04.223Z,1.80
2019-05-23T14:28:31.839Z,1.93
2019-05-23T14:31:11.448Z,2.27
2019-05-23T14:34:02.146Z,1.57
2019-05-23T14:36:44.331Z,1.57
2019-05-23T14:39:21.242Z,7.67
2019-05-23T14:42:00.046Z,1.73
2019-05-23T14:44:27.155Z,2.10
2019-05-23T14:47:29.420Z,2.30
2019-05-23T14:50:14.932Z,2.77
2019-05-23T14:52:43.377Z,1.73
2019-05-23T14:55:11.312Z,2.10
2019-05-23T14:57:39.437Z,1.97
2019-05-23T15:00:07.753Z,1.40
2019-05-23T15:02:35.412Z,1.70
2019-05-23T15:05:04.114Z,2.27
2019-05-23T15:07:31.083Z,3.03
2019-05-23T15:09:58.078Z,2.37
2019-05-23T15:12:24.989Z,1.67
2019-05-23T15:14:51.983Z,1.67
2019-05-23T15:17:18.891Z,1.30
2019-05-23T15:19:45.973Z,1.70
2019-05-23T15:22:13.301Z,1.83
2019-05-23T15:24:40.171Z,2.00
2019-05-23T15:27:07.235Z,1.60
2019-05-23T15:29:34.480Z,2.00
2019-05-23T15:32:03.204Z,1.70
2019-05-23T15:34:30.584Z,3.10
2019-05-23T15:36:58.752Z,1.67
2019-05-23T15:39:26.091Z,2.70
2019-05-23T15:41:53.103Z,3.50
2019-05-23T15:44:26.647Z,4.47
2019-05-23T15:46:48.923Z,4.77
2019-05-23T15:49:16.118Z,2.17
2019-05-23T15:52:05.481Z,3.03
2019-05-23T15:54:39.595Z,2.47
2019-05-23T15:57:26.254Z,4.33
2019-05-23T16:00:01.978Z,2.27
2019-05-23T16:02:32.769Z,1.57
2019-05-23T16:05:00.564Z,2.17
2019-05-23T16:07:27.871Z,1.70
2019-05-23T16:09:55.229Z,1.50
2019-05-23T16:12:22.425Z,1.70
2019-05-23T16:14:49.402Z,6.93
2019-05-23T16:17:17.007Z,1.83
2019-05-23T16:19:44.230Z,1.50
2019-05-23T16:22:11.723Z,2.20
2019-05-23T16:24:38.960Z,1.50
2019-05-23T16:27:06.972Z,1.60
2019-05-23T16:29:34.291Z,2.03
2019-05-23T16:32:01.194Z,2.10
2019-05-23T16:34:28.283Z,1.43
2019-05-23T16:36:55.392Z,2.60
2019-05-23T16:39:22.398Z,1.27
2019-05-23T16:41:49.517Z,1.30
2019-05-23T16:44:16.591Z,3.83
2019-05-23T16:46:43.492Z,1.47
2019-05-23T16:49:10.373Z,1.40
2019-05-23T16:51:38.324Z,1.60
2019-05-23T16:54:05.597Z,1.27
2019-05-23T16:56:51.192Z,2.00
2019-05-23T16:59:42.281Z,1.67
2019-05-23T17:02:19.510Z,2.03
2019-05-23T17:05:08.445Z,7.73
2019-05-23T17:07:37.944Z,2.47
2019-05-23T17:10:13.146Z,2.27
2019-05-23T17:12:53.746Z,1.53
2019-05-23T17:15:31.798Z,1.47
2019-05-23T17:18:18.747Z,3.70
2019-05-23T17:20:54.450Z,2.10
2019-05-23T17:23:39.461Z,1.80
2019-05-23T17:26:14.687Z,2.30
2019-05-23T17:28:44.730Z,2.40
2019-05-23T17:31:14.464Z,3.07
2019-05-23T17:33:41.757Z,1.90
2019-05-23T17:36:09.030Z,2.00
2019-05-23T17:38:36.027Z,3.30
2019-05-23T17:41:03.562Z,1.47
2019-05-23T17:43:33.595Z,1.97
2019-05-23T17:46:00.610Z,2.53
2019-05-23T17:48:28.119Z,2.03
2019-05-23T17:50:55.232Z,4.10
2019-05-23T17:53:22.590Z,4.20
2019-05-23T17:55:50.649Z,2.23
2019-05-23T17:58:19.795Z,2.63
2019-05-23T18:00:48.409Z,1.97
2019-05-23T18:03:15.923Z,2.27
2019-05-23T18:05:44.661Z,2.60
2019-05-23T18:08:12.173Z,2.13
2019-05-23T18:10:45.103Z,2.07
2019-05-23T18:13:12.729Z,3.80
2019-05-23T18:15:42.742Z,3.63
2019-05-23T18:18:10.151Z,4.13
2019-05-23T18:20:39.515Z,10.73
2019-05-23T18:23:17.136Z,2.70
2019-05-23T18:25:44.734Z,2.50
2019-05-23T18:28:13.324Z,3.60
2019-05-23T18:30:47.348Z,2.20
2019-05-23T18:33:17.594Z,1.73
2019-05-23T18:35:44.882Z,2.90
2019-05-23T18:38:12.039Z,2.30
2019-05-23T18:40:39.859Z,2.23
2019-05-23T18:43:07.114Z,2.13
2019-05-23T18:45:42.488Z,2.43
2019-05-23T18:48:10.832Z,2.17
2019-05-23T18:50:39.368Z,8.03
2019-05-23T18:53:07.991Z,4.30
2019-05-23T18:55:35.860Z,2.83
2019-05-23T18:58:03.741Z,2.33
2019-05-23T19:05:00.387Z,1.43
2019-05-23T19:07:27.869Z,4.43
2019-05-23T19:09:55.648Z,1.93
2019-05-23T19:12:23.565Z,2.00
2019-05-23T19:14:51.264Z,3.07
2019-05-23T19:17:19.162Z,1.40
2019-05-23T19:19:46.883Z,1.80
2019-05-23T19:22:14.749Z,1.40
2019-05-23T19:24:42.442Z,2.53
2019-05-23T19:27:13.981Z,2.83
2019-05-23T19:29:40.721Z,1.60
2019-05-23T19:32:09.150Z,1.60
2019-05-23T19:34:36.911Z,1.70
2019-05-23T19:37:05.161Z,1.80
2019-05-23T19:39:32.559Z,3.23
2019-05-23T19:41:59.684Z,2.07
2019-05-23T19:44:26.844Z,2.10
2019-05-23T19:46:54.107Z,2.37
2019-05-23T19:49:21.942Z,2.00
2019-05-23T19:51:49.051Z,2.17
2019-05-23T19:54:16.798Z,2.20
2019-05-23T19:56:53.699Z,1.83
2019-05-23T19:59:21.062Z,2.10
2019-05-23T20:02:14.081Z,2.90
2019-05-23T20:04:45.593Z,2.20
2019-05-23T20:07:15.374Z,1.80
2019-05-23T20:09:41.393Z,2.20
2019-05-23T20:12:08.726Z,2.57
2019-05-23T20:14:36.126Z,2.17
2019-05-23T20:17:03.434Z,1.90
2019-05-23T20:19:30.494Z,3.93
2019-05-23T20:21:57.428Z,2.30
2019-05-23T20:24:24.499Z,3.77
2019-05-23T20:26:51.442Z,2.43
2019-05-23T20:29:18.337Z,2.07
2019-05-23T20:31:48.461Z,2.80
2019-05-23T20:34:15.414Z,2.43
2019-05-23T20:36:42.567Z,2.57
2019-05-23T20:39:09.734Z,2.50
2019-05-23T20:41:37.137Z,4.60
2019-05-23T20:44:04.233Z,2.87
2019-05-23T20:46:31.417Z,2.60
2019-05-23T20:48:58.474Z,2.60
2019-05-23T20:51:26.169Z,2.20
2019-05-23T20:53:53.145Z,3.17
2019-05-23T20:56:20.122Z,3.63
2019-05-23T20:58:47.122Z,2.40
2019-05-23T21:01:18.726Z,2.50
2019-05-23T21:03:46.692Z,2.37
2019-05-23T21:06:13.984Z,2.60
2019-05-23T21:08:42.077Z,2.03
2019-05-23T21:11:09.175Z,3.07
2019-05-23T21:13:36.394Z,2.67
2019-05-23T21:16:04.335Z,2.70
2019-05-23T21:18:31.191Z,2.50
2019-05-23T21:20:58.261Z,2.40
2019-05-23T21:23:25.337Z,2.30
2019-05-23T21:25:56.813Z,2.40
2019-05-23T21:28:23.872Z,4.53
2019-05-23T21:30:50.763Z,2.43
2019-05-23T21:33:18.175Z,2.43
2019-05-23T21:35:45.260Z,2.47
2019-05-23T21:38:12.154Z,2.00
2019-05-23T21:40:44.226Z,2.13
2019-05-23T21:43:11.358Z,2.00
2019-05-23T21:45:38.920Z,2.23
2019-05-23T21:48:06.172Z,1.90
2019-05-23T21:50:33.221Z,2.00
2019-05-23T21:53:00.237Z,1.90
2019-05-23T21:55:34.658Z,2.00
2019-05-23T21:58:01.683Z,2.13
2019-05-23T22:01:20.354Z,3.63
2019-05-23T22:03:54.100Z,2.27
2019-05-23T22:06:24.776Z,3.90
2019-05-23T22:08:52.147Z,2.33
2019-05-23T22:11:19.373Z,2.23
2019-05-23T22:13:46.447Z,2.00
2019-05-23T22:16:13.652Z,2.33
2019-05-23T22:18:40.716Z,4.30
2019-05-23T22:21:07.797Z,2.77
2019-05-23T22:23:34.987Z,4.80
2019-05-23T22:26:01.949Z,2.50
2019-05-23T22:28:29.124Z,2.03
2019-05-23T22:30:55.994Z,3.33
2019-05-23T22:33:25.014Z,2.60
2019-05-23T22:35:52.584Z,2.67
2019-05-23T22:38:19.594Z,2.10
2019-05-23T22:40:46.472Z,2.53
2019-05-23T22:43:21.041Z,2.67
2019-05-23T22:45:43.358Z,2.40
2019-05-23T22:48:10.253Z,2.37
2019-05-23T22:50:38.239Z,2.50
2019-05-23T22:53:05.425Z,1.93
2019-05-23T22:55:32.429Z,3.17
2019-05-23T22:57:59.530Z,3.33
2019-05-23T23:00:32.408Z,2.20
2019-05-23T23:02:59.412Z,3.30
2019-05-23T23:05:26.590Z,1.80
2019-05-23T23:07:53.705Z,2.50
2019-05-23T23:10:20.745Z,2.50
2019-05-23T23:12:47.769Z,2.80
2019-05-23T23:15:14.819Z,2.27
2019-05-23T23:17:41.744Z,2.23
2019-05-23T23:20:09.328Z,2.00
2019-05-23T23:22:36.190Z,2.20
2019-05-23T23:25:03.409Z,2.10
2019-05-23T23:27:30.360Z,2.73
2019-05-23T23:29:57.265Z,2.63
2019-05-23T23:32:24.624Z,2.87
2019-05-23T23:34:51.744Z,2.10
2019-05-23T23:37:18.620Z,3.17
2019-05-23T23:39:46.049Z,2.70
2019-05-23T23:42:13.386Z,2.97
2019-05-23T23:44:40.028Z,3.83
2019-05-23T23:47:25.084Z,2.77
2019-05-23T23:50:10.465Z,2.67
2019-05-23T23:52:55.637Z,2.97
2019-05-23T23:55:41.151Z,2.70
2019-05-23T23:58:07.818Z,2.60
